sensor_id;sensor_type;location;lat;lon;timestamp;P1;durP1;ratioP1;P2;durP2;ratioP2
5977;SDS011;3015;51.390;12.256;2022-09-09T00:00:29;3.80;;;3.50;;
5977;SDS011;3015;51.390;12.256;2022-09-09T00:03:02;3.67;;;3.37;;
5977;SDS011;3015;51.390;12.256;2022-09-09T00:05:41;4.60;;;3.90;;
5977;SDS011;3015;51.390;12.256;2022-09-09T00:08:18;4.40;;;3.22;;
5977;SDS011;3015;51.390;12.256;2022-09-09T00:10:47;3.47;;;3.28;;
5977;SDS011;3015;51.390;12.256;2022-09-09T00:13:41;3.45;;;3.08;;
5977;SDS011;3015;51.390;12.256;2022-09-09T00:16:19;4.70;;;4.00;;
5977;SDS011;3015;51.390;12.256;2022-09-09T00:18:58;3.47;;;3.27;;
5977;SDS011;3015;51.390;12.256;2022-09-09T00:24:22;2.88;;;2.78;;
5977;SDS011;3015;51.390;12.256;2022-09-09T00:26:53;2.60;;;2.50;;
5977;SDS011;3015;51.390;12.256;2022-09-09T00:29:41;3.30;;;3.10;;
5977;SDS011;3015;51.390;12.256;2022-09-09T00:32:14;3.63;;;3.42;;
5977;SDS011;3015;51.390;12.256;2022-09-09T00:34:48;5.17;;;4.67;;
5977;SDS011;3015;51.390;12.256;2022-09-09T00:37:50;3.55;;;3.35;;
5977;SDS011;3015;51.390;12.256;2022-09-09T00:40:24;4.07;;;3.80;;
5977;SDS011;3015;51.390;12.256;2022-09-09T00:52:35;4.00;;;3.28;;
5977;SDS011;3015;51.390;12.256;2022-09-09T00:54:40;3.17;;;2.87;;
5977;SDS011;3015;51.390;12.256;2022-09-09T00:57:30;3.97;;;3.70;;
5977;SDS011;3015;51.390;12.256;2022-09-09T01:02:30;3.80;;;3.50;;
5977;SDS011;3015;51.390;12.256;2022-09-09T01:05:07;5.00;;;3.10;;
5977;SDS011;3015;51.390;12.256;2022-09-09T01:07:59;3.20;;;3.00;;
5977;SDS011;3015;51.390;12.256;2022-09-09T01:10:36;3.60;;;3.30;;
5977;SDS011;3015;51.390;12.256;2022-09-09T01:13:27;4.15;;;3.80;;
5977;SDS011;3015;51.390;12.256;2022-09-09T01:16:03;3.83;;;3.50;;
5977;SDS011;3015;51.390;12.256;2022-09-09T01:18:41;5.00;;;3.58;;
5977;SDS011;3015;51.390;12.256;2022-09-09T01:21:16;3.45;;;2.92;;
5977;SDS011;3015;51.390;12.256;2022-09-09T01:24:04;4.77;;;3.50;;
5977;SDS011;3015;51.390;12.256;2022-09-09T01:26:45;5.17;;;3.13;;
5977;SDS011;3015;51.390;12.256;2022-09-09T01:29:12;4.63;;;4.03;;
5977;SDS011;3015;51.390;12.256;2022-09-09T01:34:16;3.60;;;3.30;;
5977;SDS011;3015;51.390;12.256;2022-09-09T01:36:46;3.57;;;3.37;;
5977;SDS011;3015;51.390;12.256;2022-09-09T01:39:23;7.75;;;3.50;;
5977;SDS011;3015;51.390;12.256;2022-09-09T01:41:48;3.97;;;3.67;;
5977;SDS011;3015;51.390;12.256;2022-09-09T01:44:14;4.00;;;3.67;;
5977;SDS011;3015;51.390;12.256;2022-09-09T01:46:40;3.77;;;3.47;;
5977;SDS011;3015;51.390;12.256;2022-09-09T01:49:06;4.17;;;3.60;;
5977;SDS011;3015;51.390;12.256;2022-09-09T01:51:33;4.28;;;3.88;;
5977;SDS011;3015;51.390;12.256;2022-09-09T01:54:00;3.60;;;3.30;;
5977;SDS011;3015;51.390;12.256;2022-09-09T01:59:15;4.72;;;4.32;;
5977;SDS011;3015;51.390;12.256;2022-09-09T02:04:44;5.18;;;4.10;;
5977;SDS011;3015;51.390;12.256;2022-09-09T02:07:20;4.28;;;3.40;;
5977;SDS011;3015;51.390;12.256;2022-09-09T02:10:17;4.68;;;3.60;;
5977;SDS011;3015;51.390;12.256;2022-09-09T02:13:04;4.18;;;3.90;;
5977;SDS011;3015;51.390;12.256;2022-09-09T02:15:57;3.85;;;3.55;;
5977;SDS011;3015;51.390;12.256;2022-09-09T02:21:22;4.50;;;3.40;;
5977;SDS011;3015;51.390;12.256;2022-09-09T02:23:49;3.50;;;3.30;;
5977;SDS011;3015;51.390;12.256;2022-09-09T02:26:18;4.85;;;3.35;;
5977;SDS011;3015;51.390;12.256;2022-09-09T02:28:49;4.20;;;3.90;;
5977;SDS011;3015;51.390;12.256;2022-09-09T02:31:17;3.50;;;3.30;;
5977;SDS011;3015;51.390;12.256;2022-09-09T02:33:47;4.50;;;3.53;;
5977;SDS011;3015;51.390;12.256;2022-09-09T02:36:18;4.10;;;3.75;;
5977;SDS011;3015;51.390;12.256;2022-09-09T02:38:47;3.70;;;3.33;;
5977;SDS011;3015;51.390;12.256;2022-09-09T02:41:21;5.10;;;3.78;;
5977;SDS011;3015;51.390;12.256;2022-09-09T02:43:50;5.75;;;3.38;;
5977;SDS011;3015;51.390;12.256;2022-09-09T02:49:10;3.75;;;3.55;;
5977;SDS011;3015;51.390;12.256;2022-09-09T02:52:06;3.63;;;3.33;;
5977;SDS011;3015;51.390;12.256;2022-09-09T02:54:34;3.67;;;3.25;;
5977;SDS011;3015;51.390;12.256;2022-09-09T02:57:14;3.67;;;3.47;;
5977;SDS011;3015;51.390;12.256;2022-09-09T02:59:44;3.80;;;3.50;;
5977;SDS011;3015;51.390;12.256;2022-09-09T03:02:11;4.03;;;3.72;;
5977;SDS011;3015;51.390;12.256;2022-09-09T03:04:38;4.43;;;3.92;;
5977;SDS011;3015;51.390;12.256;2022-09-09T03:07:04;4.72;;;4.40;;
5977;SDS011;3015;51.390;12.256;2022-09-09T03:09:30;4.13;;;3.83;;
5977;SDS011;3015;51.390;12.256;2022-09-09T03:11:57;5.00;;;4.50;;
5977;SDS011;3015;51.390;12.256;2022-09-09T03:14:23;4.33;;;3.63;;
5977;SDS011;3015;51.390;12.256;2022-09-09T03:16:53;4.50;;;4.10;;
5977;SDS011;3015;51.390;12.256;2022-09-09T03:19:20;5.70;;;5.30;;
5977;SDS011;3015;51.390;12.256;2022-09-09T03:21:46;4.25;;;3.95;;
5977;SDS011;3015;51.390;12.256;2022-09-09T03:24:12;4.35;;;4.05;;
5977;SDS011;3015;51.390;12.256;2022-09-09T03:26:39;5.15;;;4.72;;
5977;SDS011;3015;51.390;12.256;2022-09-09T03:29:06;4.97;;;4.57;;
5977;SDS011;3015;51.390;12.256;2022-09-09T03:31:35;4.25;;;4.00;;
5977;SDS011;3015;51.390;12.256;2022-09-09T03:34:01;4.60;;;4.20;;
5977;SDS011;3015;51.390;12.256;2022-09-09T03:36:27;4.72;;;4.30;;
5977;SDS011;3015;51.390;12.256;2022-09-09T03:38:53;5.43;;;5.00;;
5977;SDS011;3015;51.390;12.256;2022-09-09T03:41:20;4.85;;;4.45;;
5977;SDS011;3015;51.390;12.256;2022-09-09T03:43:48;4.68;;;4.28;;
5977;SDS011;3015;51.390;12.256;2022-09-09T03:46:20;4.20;;;3.80;;
5977;SDS011;3015;51.390;12.256;2022-09-09T03:48:47;5.22;;;4.65;;
5977;SDS011;3015;51.390;12.256;2022-09-09T03:51:13;4.37;;;4.00;;
5977;SDS011;3015;51.390;12.256;2022-09-09T03:53:39;4.72;;;4.35;;
5977;SDS011;3015;51.390;12.256;2022-09-09T03:56:05;6.43;;;4.40;;
5977;SDS011;3015;51.390;12.256;2022-09-09T03:58:32;4.43;;;4.10;;
5977;SDS011;3015;51.390;12.256;2022-09-09T04:00:59;5.30;;;4.35;;
5977;SDS011;3015;51.390;12.256;2022-09-09T04:03:27;4.90;;;4.20;;
5977;SDS011;3015;51.390;12.256;2022-09-09T04:05:54;4.65;;;4.32;;
5977;SDS011;3015;51.390;12.256;2022-09-09T04:08:21;4.80;;;4.18;;
5977;SDS011;3015;51.390;12.256;2022-09-09T04:10:48;4.03;;;3.72;;
5977;SDS011;3015;51.390;12.256;2022-09-09T04:13:14;5.20;;;4.60;;
5977;SDS011;3015;51.390;12.256;2022-09-09T04:15:42;4.30;;;3.97;;
5977;SDS011;3015;51.390;12.256;2022-09-09T04:18:10;4.50;;;4.10;;
5977;SDS011;3015;51.390;12.256;2022-09-09T04:20:36;5.90;;;4.53;;
5977;SDS011;3015;51.390;12.256;2022-09-09T04:23:02;4.40;;;3.92;;
5977;SDS011;3015;51.390;12.256;2022-09-09T04:25:28;4.23;;;3.93;;
5977;SDS011;3015;51.390;12.256;2022-09-09T04:27:54;9.03;;;4.77;;
5977;SDS011;3015;51.390;12.256;2022-09-09T04:30:21;5.50;;;4.95;;
5977;SDS011;3015;51.390;12.256;2022-09-09T04:32:47;5.10;;;4.80;;
5977;SDS011;3015;51.390;12.256;2022-09-09T04:35:12;5.00;;;4.60;;
5977;SDS011;3015;51.390;12.256;2022-09-09T04:37:38;4.87;;;4.03;;
5977;SDS011;3015;51.390;12.256;2022-09-09T04:40:04;5.43;;;4.70;;
5977;SDS011;3015;51.390;12.256;2022-09-09T04:42:34;5.38;;;4.75;;
5977;SDS011;3015;51.390;12.256;2022-09-09T04:45:03;4.90;;;4.40;;
5977;SDS011;3015;51.390;12.256;2022-09-09T04:47:30;5.18;;;4.70;;
5977;SDS011;3015;51.390;12.256;2022-09-09T04:49:55;4.93;;;4.50;;
5977;SDS011;3015;51.390;12.256;2022-09-09T04:52:21;4.90;;;4.00;;
5977;SDS011;3015;51.390;12.256;2022-09-09T04:54:47;4.80;;;3.97;;
5977;SDS011;3015;51.390;12.256;2022-09-09T04:57:13;5.10;;;4.10;;
5977;SDS011;3015;51.390;12.256;2022-09-09T04:59:39;4.23;;;3.93;;
5977;SDS011;3015;51.390;12.256;2022-09-09T05:02:04;4.67;;;4.27;;
5977;SDS011;3015;51.390;12.256;2022-09-09T05:04:31;5.95;;;4.55;;
5977;SDS011;3015;51.390;12.256;2022-09-09T05:06:56;5.13;;;4.43;;
5977;SDS011;3015;51.390;12.256;2022-09-09T05:09:22;5.37;;;4.97;;
5977;SDS011;3015;51.390;12.256;2022-09-09T05:11:47;5.13;;;4.60;;
5977;SDS011;3015;51.390;12.256;2022-09-09T05:14:13;4.97;;;4.57;;
5977;SDS011;3015;51.390;12.256;2022-09-09T05:16:40;8.30;;;5.07;;
5977;SDS011;3015;51.390;12.256;2022-09-09T05:19:06;4.60;;;4.20;;
5977;SDS011;3015;51.390;12.256;2022-09-09T05:21:33;6.55;;;4.13;;
5977;SDS011;3015;51.390;12.256;2022-09-09T05:23:59;6.05;;;4.63;;
5977;SDS011;3015;51.390;12.256;2022-09-09T05:26:25;5.53;;;4.23;;
5977;SDS011;3015;51.390;12.256;2022-09-09T05:28:51;4.03;;;3.72;;
5977;SDS011;3015;51.390;12.256;2022-09-09T05:31:18;6.53;;;4.30;;
5977;SDS011;3015;51.390;12.256;2022-09-09T05:33:44;4.85;;;4.45;;
5977;SDS011;3015;51.390;12.256;2022-09-09T05:36:16;5.05;;;4.10;;
5977;SDS011;3015;51.390;12.256;2022-09-09T05:38:43;4.20;;;3.53;;
5977;SDS011;3015;51.390;12.256;2022-09-09T05:41:10;7.60;;;4.40;;
5977;SDS011;3015;51.390;12.256;2022-09-09T05:43:36;4.40;;;4.10;;
5977;SDS011;3015;51.390;12.256;2022-09-09T05:46:06;5.13;;;4.45;;
5977;SDS011;3015;51.390;12.256;2022-09-09T05:48:35;5.17;;;4.10;;
5977;SDS011;3015;51.390;12.256;2022-09-09T05:51:06;4.73;;;4.40;;
5977;SDS011;3015;51.390;12.256;2022-09-09T05:53:35;3.73;;;3.43;;
5977;SDS011;3015;51.390;12.256;2022-09-09T05:56:01;4.20;;;3.73;;
5977;SDS011;3015;51.390;12.256;2022-09-09T05:58:31;5.20;;;4.03;;
5977;SDS011;3015;51.390;12.256;2022-09-09T06:03:33;4.77;;;3.17;;
5977;SDS011;3015;51.390;12.256;2022-09-09T06:06:00;3.63;;;3.27;;
5977;SDS011;3015;51.390;12.256;2022-09-09T06:08:30;10.80;;;4.03;;
5977;SDS011;3015;51.390;12.256;2022-09-09T06:11:03;5.00;;;3.23;;
5977;SDS011;3015;51.390;12.256;2022-09-09T06:13:30;4.13;;;3.60;;
5977;SDS011;3015;51.390;12.256;2022-09-09T06:15:56;7.23;;;3.80;;
5977;SDS011;3015;51.390;12.256;2022-09-09T06:18:23;3.80;;;3.30;;
5977;SDS011;3015;51.390;12.256;2022-09-09T06:20:57;5.80;;;3.90;;
5977;SDS011;3015;51.390;12.256;2022-09-09T06:23:31;4.30;;;4.00;;
5977;SDS011;3015;51.390;12.256;2022-09-09T06:26:02;3.20;;;2.90;;
5977;SDS011;3015;51.390;12.256;2022-09-09T06:28:38;2.70;;;2.60;;
5977;SDS011;3015;51.390;12.256;2022-09-09T06:31:05;4.93;;;2.90;;
5977;SDS011;3015;51.390;12.256;2022-09-09T06:33:39;3.20;;;3.00;;
5977;SDS011;3015;51.390;12.256;2022-09-09T06:36:25;4.10;;;3.10;;
5977;SDS011;3015;51.390;12.256;2022-09-09T06:38:52;3.00;;;2.80;;
5977;SDS011;3015;51.390;12.256;2022-09-09T06:41:19;2.97;;;2.77;;
5977;SDS011;3015;51.390;12.256;2022-09-09T06:43:46;2.93;;;2.73;;
5977;SDS011;3015;51.390;12.256;2022-09-09T06:46:16;2.90;;;2.70;;
5977;SDS011;3015;51.390;12.256;2022-09-09T06:48:44;2.70;;;2.50;;
5977;SDS011;3015;51.390;12.256;2022-09-09T06:51:11;3.53;;;3.00;;
5977;SDS011;3015;51.390;12.256;2022-09-09T06:53:38;4.10;;;3.10;;
5977;SDS011;3015;51.390;12.256;2022-09-09T06:56:24;2.90;;;2.30;;
5977;SDS011;3015;51.390;12.256;2022-09-09T06:58:53;2.23;;;2.13;;
5977;SDS011;3015;51.390;12.256;2022-09-09T07:01:24;2.77;;;2.57;;
5977;SDS011;3015;51.390;12.256;2022-09-09T07:03:56;3.07;;;2.87;;
5977;SDS011;3015;51.390;12.256;2022-09-09T07:06:30;3.00;;;2.70;;
5977;SDS011;3015;51.390;12.256;2022-09-09T07:08:59;2.60;;;2.50;;
5977;SDS011;3015;51.390;12.256;2022-09-09T07:11:27;3.63;;;3.00;;
5977;SDS011;3015;51.390;12.256;2022-09-09T07:13:54;2.53;;;2.33;;
5977;SDS011;3015;51.390;12.256;2022-09-09T07:16:22;2.80;;;2.00;;
5977;SDS011;3015;51.390;12.256;2022-09-09T07:18:49;2.03;;;1.90;;
5977;SDS011;3015;51.390;12.256;2022-09-09T07:21:15;3.00;;;2.40;;
5977;SDS011;3015;51.390;12.256;2022-09-09T07:23:42;2.80;;;2.53;;
5977;SDS011;3015;51.390;12.256;2022-09-09T07:26:15;1.90;;;1.80;;
5977;SDS011;3015;51.390;12.256;2022-09-09T07:28:44;4.40;;;2.33;;
5977;SDS011;3015;51.390;12.256;2022-09-09T07:31:13;3.17;;;2.13;;
5977;SDS011;3015;51.390;12.256;2022-09-09T07:33:41;2.23;;;1.90;;
5977;SDS011;3015;51.390;12.256;2022-09-09T07:39:08;3.20;;;2.13;;
5977;SDS011;3015;51.390;12.256;2022-09-09T07:41:36;2.70;;;1.90;;
5977;SDS011;3015;51.390;12.256;2022-09-09T07:44:05;5.07;;;2.27;;
5977;SDS011;3015;51.390;12.256;2022-09-09T07:46:33;2.90;;;2.33;;
5977;SDS011;3015;51.390;12.256;2022-09-09T07:49:00;2.27;;;2.17;;
5977;SDS011;3015;51.390;12.256;2022-09-09T07:51:31;2.60;;;2.00;;
5977;SDS011;3015;51.390;12.256;2022-09-09T07:53:59;2.27;;;2.00;;
5977;SDS011;3015;51.390;12.256;2022-09-09T07:56:27;2.63;;;2.40;;
5977;SDS011;3015;51.390;12.256;2022-09-09T07:58:54;2.30;;;2.13;;
5977;SDS011;3015;51.390;12.256;2022-09-09T08:01:25;2.33;;;2.23;;
5977;SDS011;3015;51.390;12.256;2022-09-09T08:03:53;3.23;;;2.20;;
5977;SDS011;3015;51.390;12.256;2022-09-09T08:06:28;2.47;;;2.27;;
5977;SDS011;3015;51.390;12.256;2022-09-09T08:08:54;4.03;;;2.40;;
5977;SDS011;3015;51.390;12.256;2022-09-09T08:11:21;2.70;;;2.20;;
5977;SDS011;3015;51.390;12.256;2022-09-09T08:13:49;2.70;;;2.33;;
5977;SDS011;3015;51.390;12.256;2022-09-09T08:16:17;3.70;;;2.27;;
5977;SDS011;3015;51.390;12.256;2022-09-09T08:18:47;3.10;;;2.20;;
5977;SDS011;3015;51.390;12.256;2022-09-09T08:21:15;1.90;;;1.80;;
5977;SDS011;3015;51.390;12.256;2022-09-09T08:23:43;2.33;;;2.20;;
5977;SDS011;3015;51.390;12.256;2022-09-09T08:26:12;2.07;;;1.97;;
5977;SDS011;3015;51.390;12.256;2022-09-09T08:28:39;3.97;;;2.40;;
5977;SDS011;3015;51.390;12.256;2022-09-09T08:31:13;2.20;;;2.10;;
5977;SDS011;3015;51.390;12.256;2022-09-09T08:33:41;2.30;;;1.80;;
5977;SDS011;3015;51.390;12.256;2022-09-09T08:36:11;2.20;;;2.10;;
5977;SDS011;3015;51.390;12.256;2022-09-09T08:38:40;1.90;;;1.80;;
5977;SDS011;3015;51.390;12.256;2022-09-09T08:41:14;3.93;;;2.00;;
5977;SDS011;3015;51.390;12.256;2022-09-09T08:43:43;1.80;;;1.70;;
5977;SDS011;3015;51.390;12.256;2022-09-09T08:46:14;2.50;;;2.10;;
5977;SDS011;3015;51.390;12.256;2022-09-09T08:48:56;3.30;;;2.20;;
5977;SDS011;3015;51.390;12.256;2022-09-09T08:51:29;1.93;;;1.83;;
5977;SDS011;3015;51.390;12.256;2022-09-09T08:53:56;1.90;;;1.80;;
5977;SDS011;3015;51.390;12.256;2022-09-09T08:56:25;2.40;;;2.20;;
5977;SDS011;3015;51.390;12.256;2022-09-09T08:58:52;2.80;;;2.00;;
5977;SDS011;3015;51.390;12.256;2022-09-09T09:04:01;2.20;;;1.60;;
5977;SDS011;3015;51.390;12.256;2022-09-09T09:12:24;2.40;;;2.20;;
5977;SDS011;3015;51.390;12.256;2022-09-09T09:14:53;2.83;;;2.07;;
5977;SDS011;3015;51.390;12.256;2022-09-09T09:17:21;2.93;;;2.10;;
5977;SDS011;3015;51.390;12.256;2022-09-09T09:19:50;4.20;;;2.27;;
5977;SDS011;3015;51.390;12.256;2022-09-09T09:22:17;2.43;;;1.90;;
5977;SDS011;3015;51.390;12.256;2022-09-09T09:30:16;3.07;;;2.23;;
5977;SDS011;3015;51.390;12.256;2022-09-09T09:32:54;2.17;;;1.87;;
5977;SDS011;3015;51.390;12.256;2022-09-09T09:35:23;2.30;;;1.80;;
5977;SDS011;3015;51.390;12.256;2022-09-09T09:37:49;4.80;;;1.90;;
5977;SDS011;3015;51.390;12.256;2022-09-09T09:40:17;2.30;;;2.17;;
5977;SDS011;3015;51.390;12.256;2022-09-09T09:43:02;1.90;;;1.80;;
5977;SDS011;3015;51.390;12.256;2022-09-09T09:45:35;3.00;;;1.67;;
5977;SDS011;3015;51.390;12.256;2022-09-09T09:48:10;3.13;;;2.10;;
5977;SDS011;3015;51.390;12.256;2022-09-09T09:50:55;1.97;;;1.87;;
5977;SDS011;3015;51.390;12.256;2022-09-09T09:53:32;2.13;;;2.03;;
5977;SDS011;3015;51.390;12.256;2022-09-09T09:56:05;2.43;;;2.00;;
5977;SDS011;3015;51.390;12.256;2022-09-09T09:58:33;3.03;;;2.80;;
5977;SDS011;3015;51.390;12.256;2022-09-09T10:01:01;2.60;;;1.50;;
5977;SDS011;3015;51.390;12.256;2022-09-09T10:03:31;2.40;;;2.07;;
5977;SDS011;3015;51.390;12.256;2022-09-09T10:06:02;3.60;;;2.03;;
5977;SDS011;3015;51.390;12.256;2022-09-09T10:08:29;2.70;;;1.80;;
5977;SDS011;3015;51.390;12.256;2022-09-09T10:11:06;4.20;;;2.10;;
5977;SDS011;3015;51.390;12.256;2022-09-09T10:13:47;2.47;;;2.03;;
5977;SDS011;3015;51.390;12.256;2022-09-09T10:19:29;2.97;;;1.83;;
5977;SDS011;3015;51.390;12.256;2022-09-09T10:22:05;3.80;;;2.50;;
5977;SDS011;3015;51.390;12.256;2022-09-09T10:27:33;1.73;;;1.63;;
5977;SDS011;3015;51.390;12.256;2022-09-09T10:33:20;3.13;;;1.70;;
5977;SDS011;3015;51.390;12.256;2022-09-09T10:55:00;2.20;;;2.10;;
5977;SDS011;3015;51.390;12.256;2022-09-09T10:57:36;2.03;;;1.93;;
5977;SDS011;3015;51.390;12.256;2022-09-09T11:00:05;2.17;;;1.97;;
5977;SDS011;3015;51.390;12.256;2022-09-09T11:02:39;3.23;;;2.40;;
5977;SDS011;3015;51.390;12.256;2022-09-09T11:05:10;2.30;;;2.20;;
5977;SDS011;3015;51.390;12.256;2022-09-09T11:07:51;3.13;;;2.27;;
5977;SDS011;3015;51.390;12.256;2022-09-09T11:16:19;1.90;;;1.80;;
5977;SDS011;3015;51.390;12.256;2022-09-09T11:21:53;2.17;;;2.07;;
5977;SDS011;3015;51.390;12.256;2022-09-09T11:26:55;2.83;;;2.20;;
5977;SDS011;3015;51.390;12.256;2022-09-09T11:32:15;4.97;;;2.30;;
5977;SDS011;3015;51.390;12.256;2022-09-09T11:40:34;3.03;;;1.80;;
5977;SDS011;3015;51.390;12.256;2022-09-09T11:43:04;2.27;;;2.07;;
5977;SDS011;3015;51.390;12.256;2022-09-09T11:45:35;2.60;;;2.10;;
5977;SDS011;3015;51.390;12.256;2022-09-09T11:48:02;2.67;;;1.80;;
5977;SDS011;3015;51.390;12.256;2022-09-09T11:50:34;2.90;;;2.20;;
5977;SDS011;3015;51.390;12.256;2022-09-09T11:53:14;2.80;;;2.30;;
5977;SDS011;3015;51.390;12.256;2022-09-09T11:55:46;3.40;;;2.23;;
5977;SDS011;3015;51.390;12.256;2022-09-09T12:00:41;3.00;;;2.00;;
5977;SDS011;3015;51.390;12.256;2022-09-09T12:06:15;1.70;;;1.60;;
5977;SDS011;3015;51.390;12.256;2022-09-09T12:08:46;4.23;;;2.23;;
5977;SDS011;3015;51.390;12.256;2022-09-09T12:11:26;1.70;;;1.60;;
5977;SDS011;3015;51.390;12.256;2022-09-09T12:13:54;2.00;;;1.90;;
5977;SDS011;3015;51.390;12.256;2022-09-09T12:16:42;2.30;;;1.83;;
5977;SDS011;3015;51.390;12.256;2022-09-09T12:19:14;2.30;;;2.10;;
5977;SDS011;3015;51.390;12.256;2022-09-09T12:24:35;2.50;;;1.80;;
5977;SDS011;3015;51.390;12.256;2022-09-09T12:32:22;2.00;;;1.73;;
5977;SDS011;3015;51.390;12.256;2022-09-09T12:34:56;2.10;;;2.00;;
5977;SDS011;3015;51.390;12.256;2022-09-09T12:37:32;2.10;;;1.87;;
5977;SDS011;3015;51.390;12.256;2022-09-09T12:40:01;2.60;;;1.97;;
5977;SDS011;3015;51.390;12.256;2022-09-09T12:42:27;2.57;;;2.07;;
5977;SDS011;3015;51.390;12.256;2022-09-09T12:44:57;1.87;;;1.70;;
5977;SDS011;3015;51.390;12.256;2022-09-09T12:47:30;2.73;;;2.07;;
5977;SDS011;3015;51.390;12.256;2022-09-09T12:50:18;2.43;;;1.63;;
5977;SDS011;3015;51.390;12.256;2022-09-09T12:52:47;2.20;;;2.00;;
5977;SDS011;3015;51.390;12.256;2022-09-09T12:55:20;2.20;;;1.70;;
5977;SDS011;3015;51.390;12.256;2022-09-09T12:57:50;1.87;;;1.77;;
5977;SDS011;3015;51.390;12.256;2022-09-09T13:00:21;2.37;;;2.10;;
5977;SDS011;3015;51.390;12.256;2022-09-09T13:02:52;1.60;;;1.43;;
5977;SDS011;3015;51.390;12.256;2022-09-09T13:05:28;1.53;;;1.40;;
5977;SDS011;3015;51.390;12.256;2022-09-09T13:08:02;1.97;;;1.77;;
5977;SDS011;3015;51.390;12.256;2022-09-09T13:10:31;3.27;;;1.97;;
5977;SDS011;3015;51.390;12.256;2022-09-09T13:13:00;1.90;;;1.40;;
5977;SDS011;3015;51.390;12.256;2022-09-09T13:15:27;2.60;;;2.40;;
5977;SDS011;3015;51.390;12.256;2022-09-09T13:17:55;1.90;;;1.80;;
5977;SDS011;3015;51.390;12.256;2022-09-09T13:20:23;2.30;;;1.60;;
5977;SDS011;3015;51.390;12.256;2022-09-09T13:22:50;2.03;;;1.40;;
5977;SDS011;3015;51.390;12.256;2022-09-09T13:25:19;2.37;;;1.50;;
5977;SDS011;3015;51.390;12.256;2022-09-09T13:28:04;1.70;;;1.50;;
5977;SDS011;3015;51.390;12.256;2022-09-09T13:30:34;1.57;;;1.43;;
5977;SDS011;3015;51.390;12.256;2022-09-09T13:35:34;3.47;;;1.77;;
5977;SDS011;3015;51.390;12.256;2022-09-09T13:38:09;2.20;;;1.80;;
5977;SDS011;3015;51.390;12.256;2022-09-09T13:40:39;2.60;;;1.70;;
5977;SDS011;3015;51.390;12.256;2022-09-09T13:43:04;3.13;;;1.60;;
5977;SDS011;3015;51.390;12.256;2022-09-09T13:45:30;2.33;;;2.10;;
5977;SDS011;3015;51.390;12.256;2022-09-09T13:47:56;2.03;;;1.83;;
5977;SDS011;3015;51.390;12.256;2022-09-09T13:50:26;1.80;;;1.70;;
5977;SDS011;3015;51.390;12.256;2022-09-09T13:52:54;2.40;;;1.70;;
5977;SDS011;3015;51.390;12.256;2022-09-09T13:55:23;2.00;;;1.73;;
5977;SDS011;3015;51.390;12.256;2022-09-09T13:57:56;2.70;;;1.80;;
5977;SDS011;3015;51.390;12.256;2022-09-09T14:00:25;1.93;;;1.83;;
5977;SDS011;3015;51.390;12.256;2022-09-09T14:02:51;2.20;;;1.67;;
5977;SDS011;3015;51.390;12.256;2022-09-09T14:05:17;2.10;;;1.60;;
5977;SDS011;3015;51.390;12.256;2022-09-09T14:07:44;1.97;;;1.87;;
5977;SDS011;3015;51.390;12.256;2022-09-09T14:10:10;2.17;;;1.70;;
5977;SDS011;3015;51.390;12.256;2022-09-09T14:12:37;2.63;;;1.60;;
5977;SDS011;3015;51.390;12.256;2022-09-09T14:15:03;1.67;;;1.57;;
5977;SDS011;3015;51.390;12.256;2022-09-09T14:17:30;2.73;;;1.90;;
5977;SDS011;3015;51.390;12.256;2022-09-09T14:19:56;2.97;;;1.50;;
5977;SDS011;3015;51.390;12.256;2022-09-09T14:22:22;2.67;;;1.43;;
5977;SDS011;3015;51.390;12.256;2022-09-09T14:24:48;3.67;;;1.90;;
5977;SDS011;3015;51.390;12.256;2022-09-09T14:27:15;2.83;;;1.80;;
5977;SDS011;3015;51.390;12.256;2022-09-09T14:29:41;1.60;;;1.50;;
5977;SDS011;3015;51.390;12.256;2022-09-09T14:32:08;1.93;;;1.40;;
5977;SDS011;3015;51.390;12.256;2022-09-09T14:34:34;2.00;;;1.80;;
5977;SDS011;3015;51.390;12.256;2022-09-09T14:37:00;2.30;;;1.60;;
5977;SDS011;3015;51.390;12.256;2022-09-09T14:39:26;3.80;;;1.60;;
5977;SDS011;3015;51.390;12.256;2022-09-09T14:41:52;2.90;;;1.50;;
5977;SDS011;3015;51.390;12.256;2022-09-09T14:44:17;2.37;;;1.80;;
5977;SDS011;3015;51.390;12.256;2022-09-09T14:46:43;1.93;;;1.83;;
5977;SDS011;3015;51.390;12.256;2022-09-09T14:49:09;2.40;;;1.67;;
5977;SDS011;3015;51.390;12.256;2022-09-09T14:51:38;1.90;;;1.80;;
5977;SDS011;3015;51.390;12.256;2022-09-09T14:54:03;2.00;;;1.80;;
5977;SDS011;3015;51.390;12.256;2022-09-09T14:56:30;1.80;;;1.70;;
5977;SDS011;3015;51.390;12.256;2022-09-09T14:58:59;2.57;;;1.63;;
5977;SDS011;3015;51.390;12.256;2022-09-09T15:01:26;1.67;;;1.50;;
5977;SDS011;3015;51.390;12.256;2022-09-09T15:03:53;2.10;;;1.90;;
5977;SDS011;3015;51.390;12.256;2022-09-09T15:06:20;1.90;;;1.80;;
5977;SDS011;3015;51.390;12.256;2022-09-09T15:08:49;2.23;;;1.53;;
5977;SDS011;3015;51.390;12.256;2022-09-09T15:11:16;3.80;;;1.90;;
5977;SDS011;3015;51.390;12.256;2022-09-09T15:13:42;2.50;;;1.50;;
5977;SDS011;3015;51.390;12.256;2022-09-09T15:16:09;2.40;;;1.60;;
5977;SDS011;3015;51.390;12.256;2022-09-09T15:18:37;1.53;;;1.43;;
5977;SDS011;3015;51.390;12.256;2022-09-09T15:21:11;1.97;;;1.40;;
5977;SDS011;3015;51.390;12.256;2022-09-09T15:23:38;1.73;;;1.40;;
5977;SDS011;3015;51.390;12.256;2022-09-09T15:26:04;1.60;;;1.50;;
5977;SDS011;3015;51.390;12.256;2022-09-09T15:28:34;1.77;;;1.67;;
5977;SDS011;3015;51.390;12.256;2022-09-09T15:31:02;1.30;;;1.20;;
5977;SDS011;3015;51.390;12.256;2022-09-09T15:33:35;1.63;;;1.53;;
5977;SDS011;3015;51.390;12.256;2022-09-09T15:36:12;2.00;;;1.80;;
5977;SDS011;3015;51.390;12.256;2022-09-09T15:38:39;2.60;;;1.30;;
5977;SDS011;3015;51.390;12.256;2022-09-09T15:41:05;3.83;;;2.13;;
5977;SDS011;3015;51.390;12.256;2022-09-09T15:43:31;2.40;;;1.63;;
5977;SDS011;3015;51.390;12.256;2022-09-09T15:45:58;1.60;;;1.43;;
5977;SDS011;3015;51.390;12.256;2022-09-09T15:48:33;2.20;;;1.30;;
5977;SDS011;3015;51.390;12.256;2022-09-09T15:51:02;1.60;;;1.50;;
5977;SDS011;3015;51.390;12.256;2022-09-09T15:53:29;3.40;;;1.77;;
5977;SDS011;3015;51.390;12.256;2022-09-09T15:55:57;2.83;;;1.60;;
5977;SDS011;3015;51.390;12.256;2022-09-09T15:58:23;2.03;;;1.90;;
5977;SDS011;3015;51.390;12.256;2022-09-09T16:00:48;2.40;;;1.60;;
5977;SDS011;3015;51.390;12.256;2022-09-09T16:03:14;3.30;;;1.90;;
5977;SDS011;3015;51.390;12.256;2022-09-09T16:05:40;2.40;;;1.70;;
5977;SDS011;3015;51.390;12.256;2022-09-09T16:08:06;3.20;;;1.80;;
5977;SDS011;3015;51.390;12.256;2022-09-09T16:10:31;1.90;;;1.50;;
5977;SDS011;3015;51.390;12.256;2022-09-09T16:12:57;2.43;;;1.50;;
5977;SDS011;3015;51.390;12.256;2022-09-09T16:15:23;2.07;;;1.40;;
5977;SDS011;3015;51.390;12.256;2022-09-09T16:17:52;2.53;;;1.77;;
5977;SDS011;3015;51.390;12.256;2022-09-09T16:20:18;2.13;;;1.83;;
5977;SDS011;3015;51.390;12.256;2022-09-09T16:22:44;1.80;;;1.70;;
5977;SDS011;3015;51.390;12.256;2022-09-09T16:25:10;2.20;;;1.83;;
5977;SDS011;3015;51.390;12.256;2022-09-09T16:27:35;2.40;;;2.20;;
5977;SDS011;3015;51.390;12.256;2022-09-09T16:30:01;2.10;;;1.40;;
5977;SDS011;3015;51.390;12.256;2022-09-09T16:32:27;3.60;;;2.73;;
5977;SDS011;3015;51.390;12.256;2022-09-09T16:34:53;1.63;;;1.50;;
5977;SDS011;3015;51.390;12.256;2022-09-09T16:37:18;1.80;;;1.70;;
5977;SDS011;3015;51.390;12.256;2022-09-09T16:39:44;2.53;;;1.60;;
5977;SDS011;3015;51.390;12.256;2022-09-09T16:42:09;2.03;;;1.93;;
5977;SDS011;3015;51.390;12.256;2022-09-09T16:44:35;2.00;;;1.90;;
5977;SDS011;3015;51.390;12.256;2022-09-09T16:47:01;1.93;;;1.63;;
5977;SDS011;3015;51.390;12.256;2022-09-09T16:49:26;3.10;;;1.90;;
5977;SDS011;3015;51.390;12.256;2022-09-09T16:51:53;1.83;;;1.73;;
5977;SDS011;3015;51.390;12.256;2022-09-09T16:54:19;2.87;;;1.60;;
5977;SDS011;3015;51.390;12.256;2022-09-09T16:56:45;1.53;;;1.43;;
5977;SDS011;3015;51.390;12.256;2022-09-09T16:59:16;1.60;;;1.50;;
5977;SDS011;3015;51.390;12.256;2022-09-09T17:01:44;4.60;;;1.50;;
5977;SDS011;3015;51.390;12.256;2022-09-09T17:04:18;1.50;;;1.40;;
5977;SDS011;3015;51.390;12.256;2022-09-09T17:06:46;1.50;;;1.33;;
5977;SDS011;3015;51.390;12.256;2022-09-09T17:09:14;2.83;;;1.80;;